createdAt,value
2022-07-25T00:00:29.814Z,5.15
2022-07-25T00:02:57.766Z,5.93
2022-07-25T00:05:26.142Z,5.97
2022-07-25T00:07:53.488Z,6.30
2022-07-25T00:10:20.888Z,6.65
2022-07-25T00:12:48.261Z,6.47
2022-07-25T00:15:15.805Z,6.53
2022-07-25T00:17:43.164Z,6.70
2022-07-25T00:20:10.423Z,6.97
2022-07-25T00:22:37.873Z,7.05
2022-07-25T00:25:05.386Z,6.63
2022-07-25T00:27:32.716Z,6.53
2022-07-25T00:30:00.055Z,6.10
2022-07-25T00:32:27.413Z,6.10
2022-07-25T00:34:54.795Z,6.47
2022-07-25T00:37:22.875Z,6.63
2022-07-25T00:39:50.319Z,6.50
2022-07-25T00:42:17.662Z,6.55
2022-07-25T00:44:45.069Z,6.25
2022-07-25T00:47:12.378Z,6.22
2022-07-25T00:49:39.749Z,5.13
2022-07-25T00:52:07.221Z,5.50
2022-07-25T00:54:34.632Z,5.32
2022-07-25T00:57:02.340Z,5.97
2022-07-25T00:59:29.866Z,5.47
2022-07-25T01:01:57.307Z,5.70
2022-07-25T01:04:24.842Z,5.55
2022-07-25T01:06:52.299Z,5.72
2022-07-25T01:09:19.777Z,5.47
2022-07-25T01:11:47.315Z,5.40
2022-07-25T01:14:14.707Z,6.05
2022-07-25T01:16:42.128Z,5.97
2022-07-25T01:19:10.066Z,6.15
2022-07-25T01:21:42.455Z,6.20
2022-07-25T01:24:12.648Z,6.93
2022-07-25T01:29:07.225Z,6.22
2022-07-25T01:31:34.676Z,6.35
2022-07-25T01:34:02.147Z,6.90
2022-07-25T01:36:29.664Z,5.88
2022-07-25T01:38:57.054Z,6.22
2022-07-25T01:41:24.566Z,6.90
2022-07-25T01:43:51.895Z,7.18
2022-07-25T01:46:19.335Z,6.93
2022-07-25T01:48:46.768Z,6.85
2022-07-25T01:51:15.385Z,6.07
2022-07-25T01:53:48.134Z,6.70
2022-07-25T01:56:15.767Z,6.13
2022-07-25T01:58:43.122Z,6.75
2022-07-25T02:01:10.625Z,6.35
2022-07-25T02:03:38.089Z,6.57
2022-07-25T02:06:07.514Z,6.38
2022-07-25T02:08:35.069Z,6.30
2022-07-25T02:11:02.600Z,6.80
2022-07-25T02:13:30.015Z,6.13
2022-07-25T02:15:57.480Z,7.43
2022-07-25T02:18:24.840Z,7.70
2022-07-25T02:20:52.271Z,6.28
2022-07-25T02:23:19.704Z,6.70
2022-07-25T02:25:47.039Z,6.82
2022-07-25T02:28:14.402Z,6.70
2022-07-25T02:30:41.853Z,6.28
2022-07-25T02:33:09.225Z,7.13
2022-07-25T02:35:36.600Z,6.55
2022-07-25T02:38:04.013Z,6.28
2022-07-25T02:40:31.617Z,6.55
2022-07-25T02:42:58.967Z,6.28
2022-07-25T02:45:26.330Z,5.78
2022-07-25T02:47:53.650Z,6.20
2022-07-25T02:50:21.025Z,6.00
2022-07-25T02:52:48.369Z,5.95
2022-07-25T02:55:15.773Z,6.13
2022-07-25T02:57:43.072Z,6.63
2022-07-25T03:00:10.851Z,6.32
2022-07-25T03:02:38.468Z,6.85
2022-07-25T03:05:10.790Z,6.60
2022-07-25T03:07:38.401Z,6.57
2022-07-25T03:10:11.151Z,6.72
2022-07-25T03:12:39.958Z,7.18
2022-07-25T03:15:08.166Z,5.68
2022-07-25T03:17:35.531Z,6.97
2022-07-25T03:20:02.932Z,6.20
2022-07-25T03:22:30.275Z,5.97
2022-07-25T03:24:57.716Z,6.80
2022-07-25T03:27:25.094Z,6.00
2022-07-25T03:29:52.921Z,5.97
2022-07-25T03:32:20.435Z,6.15
2022-07-25T03:34:47.757Z,6.05
2022-07-25T03:37:15.337Z,6.40
2022-07-25T03:39:42.806Z,5.78
2022-07-25T03:42:11.763Z,6.68
2022-07-25T03:44:39.268Z,6.18
2022-07-25T03:47:06.934Z,6.57
2022-07-25T03:49:34.311Z,6.07
2022-07-25T03:52:01.776Z,6.88
2022-07-25T03:54:29.099Z,6.22
2022-07-25T03:56:56.488Z,6.07
2022-07-25T03:59:23.911Z,6.25
2022-07-25T04:01:51.576Z,5.80
2022-07-25T04:04:19.725Z,6.53
2022-07-25T04:06:47.285Z,6.35
2022-07-25T04:09:15.734Z,6.40
2022-07-25T04:11:43.439Z,5.60
2022-07-25T04:14:10.993Z,6.03
2022-07-25T04:16:39.332Z,5.95
2022-07-25T04:19:07.552Z,5.85
2022-07-25T04:21:36.071Z,5.97
2022-07-25T04:24:03.819Z,6.20
2022-07-25T04:26:31.622Z,5.60
2022-07-25T04:28:59.076Z,5.85
2022-07-25T04:31:26.702Z,6.07
2022-07-25T04:33:54.158Z,5.80
2022-07-25T04:36:21.729Z,6.53
2022-07-25T04:38:49.056Z,5.45
2022-07-25T04:41:16.529Z,5.70
2022-07-25T04:43:48.536Z,6.22
2022-07-25T04:46:20.368Z,5.18
2022-07-25T04:48:48.120Z,5.93
2022-07-25T04:51:15.971Z,6.50
2022-07-25T04:53:43.313Z,5.22
2022-07-25T04:56:10.714Z,5.70
2022-07-25T04:58:38.119Z,5.72
2022-07-25T05:01:05.562Z,5.20
2022-07-25T05:03:33.064Z,5.35
2022-07-25T05:06:00.462Z,5.45
2022-07-25T05:08:28.053Z,5.47
2022-07-25T05:10:55.527Z,5.03
2022-07-25T05:13:22.849Z,5.28
2022-07-25T05:15:50.214Z,5.18
2022-07-25T05:18:17.650Z,5.15
2022-07-25T05:20:45.148Z,5.47
2022-07-25T05:23:12.511Z,5.88
2022-07-25T05:25:40.294Z,5.05
2022-07-25T05:28:07.625Z,4.90
2022-07-25T05:30:39.607Z,5.47
2022-07-25T05:33:07.410Z,5.00
2022-07-25T05:35:34.932Z,5.03
2022-07-25T05:38:02.277Z,5.15
2022-07-25T05:40:29.682Z,4.93
2022-07-25T05:43:00.928Z,4.70
2022-07-25T05:45:30.548Z,5.53
2022-07-25T05:47:57.872Z,5.03
2022-07-25T05:50:25.322Z,5.07
2022-07-25T05:52:52.725Z,5.15
2022-07-25T05:55:20.110Z,5.25
2022-07-25T05:57:47.484Z,5.53
2022-07-25T06:00:15.284Z,4.68
2022-07-25T06:02:42.775Z,5.00
2022-07-25T06:05:10.350Z,4.65
2022-07-25T06:07:37.726Z,4.90
2022-07-25T06:10:05.542Z,4.57
2022-07-25T06:12:33.829Z,4.72
2022-07-25T06:15:04.536Z,5.05
2022-07-25T06:17:32.613Z,4.20
2022-07-25T06:20:00.451Z,4.60
2022-07-25T06:22:28.028Z,4.13
2022-07-25T06:24:55.460Z,4.85
2022-07-25T06:27:27.421Z,4.18
2022-07-25T06:29:56.527Z,5.03
2022-07-25T06:32:23.970Z,4.40
2022-07-25T06:34:51.416Z,4.32
2022-07-25T06:37:19.062Z,4.13
2022-07-25T06:39:46.465Z,4.30
2022-07-25T06:42:14.019Z,4.75
2022-07-25T06:44:41.453Z,4.57
2022-07-25T06:47:12.788Z,3.78
2022-07-25T06:49:40.660Z,4.10
2022-07-25T06:52:08.066Z,4.50
2022-07-25T06:54:35.539Z,4.25
2022-07-25T06:57:03.077Z,3.28
2022-07-25T06:59:30.639Z,3.80
2022-07-25T07:01:58.050Z,3.55
2022-07-25T07:04:25.440Z,3.72
2022-07-25T07:06:52.795Z,3.17
2022-07-25T07:09:20.230Z,3.20
2022-07-25T07:11:47.743Z,4.68
2022-07-25T07:14:15.213Z,3.97
2022-07-25T07:16:42.838Z,3.88
2022-07-25T07:19:14.683Z,3.20
2022-07-25T07:21:42.473Z,3.35
2022-07-25T07:24:23.499Z,3.50
2022-07-25T07:26:52.405Z,3.20
2022-07-25T07:29:19.522Z,3.63
2022-07-25T07:31:47.227Z,3.20
2022-07-25T07:34:16.390Z,3.15
2022-07-25T07:36:44.318Z,3.28
2022-07-25T07:39:11.488Z,3.00
2022-07-25T07:41:38.813Z,3.17
2022-07-25T07:44:06.162Z,2.90
2022-07-25T07:46:33.843Z,3.05
2022-07-25T07:49:01.488Z,2.63
2022-07-25T07:51:29.022Z,2.90
2022-07-25T07:54:15.302Z,3.17
2022-07-25T07:56:42.774Z,3.22
2022-07-25T07:59:10.579Z,3.22
2022-07-25T08:01:38.233Z,2.95
2022-07-25T08:04:05.847Z,3.33
2022-07-25T08:06:33.255Z,3.08
2022-07-25T08:09:00.651Z,2.97
2022-07-25T08:11:28.125Z,3.15
2022-07-25T08:13:55.754Z,3.35
2022-07-25T08:16:23.435Z,3.78
2022-07-25T08:18:50.443Z,3.10
2022-07-25T08:21:17.627Z,3.13
2022-07-25T08:23:47.208Z,3.42
2022-07-25T08:26:14.660Z,3.08
2022-07-25T08:28:42.210Z,2.80
2022-07-25T08:31:10.355Z,3.20
2022-07-25T08:33:38.069Z,3.13
2022-07-25T08:36:05.669Z,4.03
2022-07-25T08:38:32.929Z,2.42
2022-07-25T08:41:01.390Z,2.97
2022-07-25T08:43:33.110Z,2.55
2022-07-25T08:46:02.361Z,2.80
2022-07-25T08:48:30.300Z,2.47
2022-07-25T08:50:57.957Z,3.22
2022-07-25T08:53:34.830Z,2.83
2022-07-25T08:56:11.567Z,2.65
2022-07-25T08:58:44.195Z,2.88
2022-07-25T09:01:12.991Z,2.80
2022-07-25T09:03:40.583Z,2.78
2022-07-25T09:06:18.936Z,2.65
2022-07-25T09:08:57.747Z,2.47
2022-07-25T09:11:33.636Z,2.40
2022-07-25T09:14:09.632Z,2.03
2022-07-25T09:16:44.349Z,2.70
2022-07-25T09:19:13.351Z,2.40
2022-07-25T09:21:41.511Z,2.33
2022-07-25T09:24:09.882Z,2.60
2022-07-25T09:26:51.637Z,2.15
2022-07-25T09:29:23.711Z,2.70
2022-07-25T09:31:52.511Z,2.20
2022-07-25T09:34:38.972Z,2.20
2022-07-25T09:37:08.977Z,2.40
2022-07-25T09:39:36.330Z,1.92
2022-07-25T09:42:03.895Z,2.20
2022-07-25T09:44:30.971Z,2.45
2022-07-25T09:47:01.201Z,2.60
2022-07-25T09:49:43.378Z,2.53
2022-07-25T09:52:11.952Z,2.28
2022-07-25T09:54:40.382Z,2.28
2022-07-25T09:57:07.776Z,2.72
2022-07-25T09:59:35.111Z,2.20
2022-07-25T10:02:08.600Z,2.20
2022-07-25T10:04:51.521Z,2.45
2022-07-25T10:07:21.846Z,2.65
2022-07-25T10:09:51.245Z,2.30
2022-07-25T10:12:24.508Z,2.25
2022-07-25T10:15:13.220Z,2.33
2022-07-25T10:17:41.914Z,2.15
2022-07-25T10:20:10.405Z,2.00
2022-07-25T10:22:56.232Z,1.90
2022-07-25T10:25:24.531Z,2.03
2022-07-25T10:28:01.068Z,2.20
2022-07-25T10:30:35.598Z,2.00
2022-07-25T10:33:06.621Z,2.30
2022-07-25T10:35:33.828Z,2.17
2022-07-25T10:38:04.962Z,2.15
2022-07-25T10:40:39.801Z,1.88
2022-07-25T10:43:15.067Z,2.25
2022-07-25T10:45:48.542Z,2.55
2022-07-25T10:48:24.451Z,2.25
2022-07-25T10:51:03.115Z,2.20
2022-07-25T10:53:33.857Z,2.40
2022-07-25T10:56:13.063Z,2.35
2022-07-25T10:58:43.964Z,2.47
2022-07-25T11:01:11.475Z,2.10
2022-07-25T11:03:38.619Z,2.28
2022-07-25T11:06:06.011Z,2.17
2022-07-25T11:08:36.384Z,2.20
2022-07-25T11:11:03.834Z,2.53
2022-07-25T11:13:36.117Z,2.70
2022-07-25T11:16:03.151Z,2.13
2022-07-25T11:18:36.434Z,2.80
2022-07-25T11:21:06.681Z,2.15
2022-07-25T11:23:35.227Z,2.80
2022-07-25T11:26:10.422Z,2.47
2022-07-25T11:28:41.245Z,2.55
2022-07-25T11:31:08.458Z,2.88
2022-07-25T11:33:38.610Z,2.38
2022-07-25T11:36:06.908Z,2.22
2022-07-25T11:41:03.785Z,2.88
2022-07-25T11:43:30.816Z,2.33
2022-07-25T11:46:03.456Z,2.88
2022-07-25T11:48:39.288Z,2.75
2022-07-25T11:51:16.295Z,2.85
2022-07-25T11:53:51.087Z,2.90
2022-07-25T11:56:41.841Z,2.65
2022-07-25T11:59:10.497Z,2.85
2022-07-25T12:01:40.453Z,3.00
2022-07-25T12:04:20.526Z,3.10
2022-07-25T12:09:21.548Z,3.10
2022-07-25T12:11:49.722Z,2.92
2022-07-25T12:14:17.454Z,3.13
2022-07-25T12:16:44.562Z,3.03
2022-07-25T12:19:19.522Z,3.20
2022-07-25T12:21:46.610Z,3.15
2022-07-25T12:24:14.224Z,3.03
2022-07-25T12:26:41.843Z,3.28
2022-07-25T12:29:09.727Z,3.45
2022-07-25T12:31:37.382Z,3.40
2022-07-25T12:34:04.355Z,2.75
2022-07-25T12:36:31.706Z,2.90
2022-07-25T12:38:59.206Z,2.90
2022-07-25T12:41:26.834Z,3.10
2022-07-25T12:43:53.748Z,3.05
2022-07-25T12:46:21.306Z,3.20
2022-07-25T12:48:49.780Z,3.33
2022-07-25T12:51:17.155Z,3.22
2022-07-25T12:53:44.121Z,3.08
2022-07-25T12:56:11.069Z,3.58
2022-07-25T12:58:38.440Z,3.17
2022-07-25T13:01:06.198Z,3.17
2022-07-25T13:03:33.965Z,3.33
2022-07-25T13:06:00.925Z,3.38
2022-07-25T13:08:28.293Z,3.50
2022-07-25T13:10:55.611Z,3.70
2022-07-25T13:13:22.638Z,3.30
2022-07-25T13:15:49.951Z,3.67
2022-07-25T13:18:17.416Z,3.60
2022-07-25T13:20:44.765Z,3.63
2022-07-25T13:23:11.750Z,3.88
2022-07-25T13:25:39.048Z,3.55
2022-07-25T13:28:08.508Z,4.30
2022-07-25T13:30:38.482Z,5.47
2022-07-25T13:33:05.820Z,6.45
2022-07-25T13:35:38.864Z,5.22
2022-07-25T13:38:06.603Z,4.43
2022-07-25T13:40:33.970Z,5.00
2022-07-25T13:43:00.925Z,4.60
2022-07-25T13:45:29.162Z,4.82
2022-07-25T13:48:26.850Z,4.32
2022-07-25T13:50:44.196Z,4.40
2022-07-25T13:53:11.603Z,4.07
2022-07-25T13:55:39.086Z,4.45
2022-07-25T13:58:06.765Z,3.58
2022-07-25T14:00:33.678Z,4.00
2022-07-25T14:03:01.264Z,3.55
2022-07-25T14:05:28.215Z,3.67
2022-07-25T14:07:55.573Z,3.28
2022-07-25T14:10:22.969Z,3.38
2022-07-25T14:12:50.434Z,3.78
2022-07-25T14:15:17.808Z,3.60
2022-07-25T14:17:44.996Z,3.50
2022-07-25T14:20:13.012Z,3.42
2022-07-25T14:22:42.166Z,3.47
2022-07-25T14:25:10.026Z,3.50
2022-07-25T14:27:37.867Z,4.28
2022-07-25T14:30:09.467Z,4.85
2022-07-25T14:32:37.177Z,5.20
2022-07-25T14:35:06.107Z,4.43
2022-07-25T14:37:33.982Z,3.40
2022-07-25T14:40:02.507Z,3.95
2022-07-25T14:42:30.216Z,4.00
2022-07-25T14:44:57.174Z,4.68
2022-07-25T14:47:26.771Z,3.33
2022-07-25T14:49:54.858Z,3.58
2022-07-25T14:52:23.478Z,3.53
2022-07-25T14:54:51.033Z,3.75
2022-07-25T14:57:18.484Z,4.20
2022-07-25T14:59:45.589Z,3.17
2022-07-25T15:02:12.612Z,3.72
2022-07-25T15:04:39.694Z,3.28
2022-07-25T15:07:07.100Z,3.03
2022-07-25T15:09:34.035Z,3.75
2022-07-25T15:12:01.213Z,3.53
2022-07-25T15:14:28.553Z,3.85
2022-07-25T15:16:56.019Z,3.10
2022-07-25T15:19:23.551Z,3.40
2022-07-25T15:21:53.336Z,3.70
2022-07-25T15:24:23.495Z,2.95
2022-07-25T15:26:53.185Z,3.60
2022-07-25T15:29:20.793Z,3.45
2022-07-25T15:31:49.271Z,3.28
2022-07-25T15:34:16.779Z,3.47
2022-07-25T15:36:43.756Z,3.22
2022-07-25T15:39:11.464Z,3.63
2022-07-25T15:41:38.698Z,3.67
2022-07-25T15:44:06.509Z,4.43
2022-07-25T15:46:34.334Z,3.70
2022-07-25T15:49:02.650Z,3.75
2022-07-25T15:51:30.156Z,3.70
2022-07-25T15:53:57.714Z,4.35
2022-07-25T15:56:25.646Z,3.70
2022-07-25T15:58:52.683Z,3.83
2022-07-25T16:01:20.176Z,4.28
2022-07-25T16:03:47.947Z,4.00
2022-07-25T16:06:18.779Z,3.70
2022-07-25T16:08:46.434Z,3.88
2022-07-25T16:11:24.150Z,3.65
2022-07-25T16:13:51.217Z,3.70
2022-07-25T16:16:18.695Z,3.53
2022-07-25T16:18:46.119Z,4.25
2022-07-25T16:21:13.669Z,3.25
2022-07-25T16:23:44.976Z,3.38
2022-07-25T16:26:13.211Z,3.95
2022-07-25T16:28:40.975Z,3.65
2022-07-25T16:31:08.403Z,3.80
2022-07-25T16:33:35.907Z,3.97
2022-07-25T16:36:04.549Z,3.40
2022-07-25T16:38:32.861Z,3.53
2022-07-25T16:41:00.335Z,4.13
2022-07-25T16:43:27.703Z,3.33
2022-07-25T16:45:55.273Z,4.03
2022-07-25T16:48:23.597Z,3.53
2022-07-25T16:50:51.621Z,4.05
2022-07-25T16:53:20.618Z,4.32
2022-07-25T16:55:48.052Z,3.88
2022-07-25T16:58:16.146Z,3.40
2022-07-25T17:00:43.739Z,3.65
2022-07-25T17:03:11.104Z,4.25
2022-07-25T17:05:38.497Z,4.57
2022-07-25T17:08:05.884Z,3.85
2022-07-25T17:10:33.461Z,4.25
2022-07-25T17:13:00.993Z,4.13
2022-07-25T17:15:28.122Z,3.92
2022-07-25T17:17:55.495Z,3.92
2022-07-25T17:20:23.116Z,4.00
2022-07-25T17:22:50.200Z,4.22
2022-07-25T17:25:17.902Z,6.82
2022-07-25T17:27:45.308Z,4.35
2022-07-25T17:30:12.626Z,4.75
2022-07-25T17:32:40.350Z,8.13
2022-07-25T17:35:07.888Z,7.40
2022-07-25T17:37:35.290Z,10.23
2022-07-25T17:40:02.717Z,9.55
2022-07-25T17:42:30.337Z,9.15
2022-07-25T17:44:57.403Z,9.57
2022-07-25T17:47:25.011Z,9.13
2022-07-25T17:49:52.549Z,8.73
2022-07-25T17:52:19.893Z,9.35
2022-07-25T17:54:47.696Z,8.95
2022-07-25T17:57:15.086Z,9.15
2022-07-25T17:59:42.594Z,10.23
2022-07-25T18:02:09.954Z,10.80
2022-07-25T18:04:37.621Z,10.70
2022-07-25T18:07:05.268Z,10.15
2022-07-25T18:09:32.761Z,11.02
2022-07-25T18:12:00.276Z,9.98
2022-07-25T18:14:28.472Z,10.20
2022-07-25T18:16:55.765Z,10.68
2022-07-25T18:19:25.175Z,10.93
2022-07-25T18:21:53.143Z,10.82
2022-07-25T18:24:20.747Z,11.73
2022-07-25T18:26:47.700Z,11.48
2022-07-25T18:29:15.039Z,11.90
2022-07-25T18:31:42.454Z,11.80
2022-07-25T18:34:10.188Z,10.73
2022-07-25T18:36:37.845Z,11.38
2022-07-25T18:39:05.272Z,10.60
2022-07-25T18:41:34.081Z,11.25
2022-07-25T18:44:01.821Z,11.23
2022-07-25T18:46:30.239Z,10.38
2022-07-25T18:48:58.292Z,11.20
2022-07-25T18:51:25.707Z,10.55
2022-07-25T18:53:53.155Z,9.57
2022-07-25T18:56:20.567Z,10.38
2022-07-25T18:58:47.998Z,10.18
2022-07-25T19:01:15.340Z,9.98
2022-07-25T19:03:42.968Z,11.45
2022-07-25T19:06:10.295Z,10.57
2022-07-25T19:08:38.068Z,10.25
2022-07-25T19:11:08.827Z,10.35
2022-07-25T19:13:49.546Z,10.10
2022-07-25T19:16:18.459Z,10.45
2022-07-25T19:18:46.070Z,10.88
2022-07-25T19:21:13.887Z,10.20
2022-07-25T19:23:40.958Z,10.20
2022-07-25T19:26:08.310Z,9.63
2022-07-25T19:28:36.403Z,10.32
2022-07-25T19:31:03.894Z,9.68
2022-07-25T19:33:36.056Z,8.57
2022-07-25T19:36:07.056Z,8.68
2022-07-25T19:38:34.615Z,6.70
2022-07-25T19:41:02.286Z,7.30
2022-07-25T19:43:29.915Z,7.15
2022-07-25T19:45:57.794Z,6.25
2022-07-25T19:48:26.774Z,5.18
2022-07-25T19:50:54.352Z,4.95
2022-07-25T19:53:28.087Z,4.80
2022-07-25T19:55:55.619Z,4.05
2022-07-25T19:58:23.034Z,4.18
2022-07-25T20:00:50.433Z,3.80
2022-07-25T20:03:23.278Z,3.85
2022-07-25T20:05:51.623Z,3.28
2022-07-25T20:08:19.076Z,3.63
2022-07-25T20:10:47.398Z,3.70
2022-07-25T20:13:15.168Z,4.00
2022-07-25T20:15:42.674Z,3.38
2022-07-25T20:18:09.718Z,3.88
2022-07-25T20:20:36.998Z,3.60
2022-07-25T20:23:04.432Z,2.90
2022-07-25T20:25:32.552Z,3.10
2022-07-25T20:27:59.540Z,3.80
2022-07-25T20:30:29.306Z,3.50
2022-07-25T20:32:59.998Z,3.05
2022-07-25T20:35:32.285Z,3.20
2022-07-25T20:38:01.941Z,3.38
2022-07-25T20:40:30.049Z,3.47
2022-07-25T20:42:59.019Z,2.90
2022-07-25T20:45:26.071Z,3.13
2022-07-25T20:47:53.717Z,2.83
2022-07-25T20:50:21.051Z,3.63
2022-07-25T20:52:48.013Z,3.42
2022-07-25T20:55:15.336Z,3.13
2022-07-25T20:57:44.211Z,3.15
2022-07-25T21:00:13.676Z,3.58
2022-07-25T21:02:41.559Z,3.42
2022-07-25T21:05:09.128Z,3.30
2022-07-25T21:07:36.624Z,3.45
2022-07-25T21:10:04.755Z,2.90
2022-07-25T21:12:33.264Z,2.92
2022-07-25T21:15:01.369Z,2.80
2022-07-25T21:17:28.931Z,2.33
2022-07-25T21:19:56.012Z,2.70
2022-07-25T21:22:23.645Z,2.92
2022-07-25T21:24:50.716Z,3.45
2022-07-25T21:27:18.448Z,3.20
2022-07-25T21:29:46.269Z,3.55
2022-07-25T21:32:14.011Z,3.30
2022-07-25T21:34:41.941Z,2.60
2022-07-25T21:37:09.463Z,2.95
2022-07-25T21:39:37.388Z,3.08
2022-07-25T21:42:05.197Z,2.97
2022-07-25T21:44:32.887Z,2.88
2022-07-25T21:47:00.405Z,3.05
2022-07-25T21:49:45.853Z,3.00
2022-07-25T21:52:14.258Z,3.00
2022-07-25T21:54:42.741Z,2.63
2022-07-25T21:57:13.228Z,2.72
2022-07-25T21:59:42.588Z,3.25
2022-07-25T22:02:10.470Z,2.70
2022-07-25T22:04:38.058Z,2.72
2022-07-25T22:07:05.386Z,2.85
2022-07-25T22:09:32.660Z,2.60
2022-07-25T22:12:00.040Z,2.67
2022-07-25T22:14:27.374Z,2.55
2022-07-25T22:16:54.389Z,2.72
2022-07-25T22:19:22.706Z,2.70
2022-07-25T22:21:50.444Z,2.78
2022-07-25T22:24:17.934Z,2.40
2022-07-25T22:26:45.615Z,3.10
2022-07-25T22:29:13.002Z,2.60
2022-07-25T22:31:40.535Z,2.55
2022-07-25T22:34:08.016Z,2.90
2022-07-25T22:36:35.173Z,1.98
2022-07-25T22:39:02.539Z,2.38
2022-07-25T22:41:29.940Z,2.17
2022-07-25T22:43:59.934Z,2.55
2022-07-25T22:46:29.369Z,2.28
2022-07-25T22:48:57.650Z,3.57
2022-07-25T22:51:25.776Z,2.50
2022-07-25T22:53:53.349Z,2.78
2022-07-25T22:56:20.833Z,2.33
2022-07-25T22:58:48.927Z,3.10
2022-07-25T23:01:20.066Z,2.20
2022-07-25T23:03:49.970Z,2.25
2022-07-25T23:08:45.204Z,2.58
2022-07-25T23:11:12.599Z,2.30
2022-07-25T23:13:39.911Z,2.47
2022-07-25T23:16:10.438Z,2.80
2022-07-25T23:18:38.383Z,2.10
2022-07-25T23:21:06.068Z,2.85
2022-07-25T23:23:33.367Z,2.70
2022-07-25T23:26:00.797Z,2.58
2022-07-25T23:28:28.541Z,2.88
2022-07-25T23:30:56.027Z,2.55
2022-07-25T23:33:25.734Z,3.03
2022-07-25T23:35:54.505Z,2.70
2022-07-25T23:38:22.584Z,2.75
2022-07-25T23:40:50.222Z,2.45
2022-07-25T23:43:47.249Z,3.05
2022-07-25T23:46:05.567Z,2.58
2022-07-25T23:48:34.821Z,2.40
2022-07-25T23:51:02.228Z,2.58
2022-07-25T23:53:29.591Z,2.20
2022-07-25T23:55:56.954Z,2.47
2022-07-25T23:58:24.478Z,2.30
